Time;durP1;ratioP1;P1;durP2;ratioP2;P2;SDS_P1;SDS_P2;PMS_P1;PMS_P2;Temp;Humidity;BMP_temperature;BMP_pressure;BME280_temperature;BME280_humidity;BME280_pressure;Samples;Min_cycle;Max_cycle;Signal;HPM_P1;HPM_P2
2022/07/04 00:01:46;;;;;;;;;;;;;;;;;;5028102;28;20372;-84
2022/07/04 00:04:11;;;;;;;;;;;;;;;;;;5015927;28;19914;-84
2022/07/04 00:06:37;;;;;;;;;;;;;;;;;;5015361;28;20026;-85
2022/07/04 00:09:02;;;;;;;;;;;;;;;;;;5018009;28;20411;-84
2022/07/04 00:11:27;;;;;;;;;;;;;;;;;;5014054;28;20006;-85
2022/07/04 00:13:52;;;;;;;;;;;;;;;;;;5018304;28;19913;-84
2022/07/04 00:16:17;;;;;;;;;;;;;;;;;;5016223;28;19961;-85
2022/07/04 00:18:42;;;;;;;;;;;;;;;;;;5012784;28;19928;-85
2022/07/04 00:21:08;;;;;;;;;;;;;;;;;;5017063;28;20397;-86
2022/07/04 00:23:33;;;;;;;;;;;;;;;;;;5018605;28;20403;-85
2022/07/04 00:25:58;;;;;;;;;;;;;;;;;;5016083;28;19921;-85
2022/07/04 00:28:23;;;;;;;;;;;;;;;;;;5013885;28;20059;-85
2022/07/04 00:30:48;;;;;;;;;;;;;;;;;;5016531;28;20020;-85
2022/07/04 00:33:14;;;;;;;;;;;;;;;;;;5017384;28;20394;-85
2022/07/04 00:35:39;;;;;;;;;;;;;;;;;;5018502;28;19917;-85
2022/07/04 00:38:04;;;;;;;;;;;;;;;;;;5022505;28;19913;-84
2022/07/04 00:40:29;;;;;;;;;;;;;;;;;;5019613;28;20045;-85
2022/07/04 00:42:54;;;;;;;;;;;;;;;;;;5015533;28;19918;-84
2022/07/04 00:45:20;;;;;;;;;;;;;;;;;;5017716;28;19917;-85
2022/07/04 00:47:45;;;;;;;;;;;;;;;;;;5017303;28;20421;-84
2022/07/04 00:50:10;;;;;;;;;;;;;;;;;;5016121;28;19922;-85
2022/07/04 00:52:35;;;;;;;;;;;;;;;;;;5016263;28;20265;-84
2022/07/04 00:55:00;;;;;;;;;;;;;;;;;;5015399;28;19921;-85
2022/07/04 00:57:25;;;;;;;;;;;;;;;;;;5013983;28;19944;-85
2022/07/04 00:59:51;;;;;;;;;;;;;;;;;;5017703;28;20004;-85
2022/07/04 01:02:16;;;;;;;;;;;;;;;;;;5018192;28;19971;-85
2022/07/04 01:04:42;;;;;;;;;;;;;;;;;;5014629;28;19917;-84
2022/07/04 01:07:07;;;;;;;;;;;;;;;;;;5029147;28;20380;-85
2022/07/04 01:09:32;;;;;;;;;;;;;;;;;;5015152;28;19945;-84
2022/07/04 01:11:57;;;;;;;;;;;;;;;;;;5010300;28;19922;-85
2022/07/04 01:14:23;;;;;;;;;;;;;;;;;;5014062;28;20000;-85
2022/07/04 01:16:48;;;;;;;;;;;;;;;;;;5016308;28;20405;-84
2022/07/04 01:19:13;;;;;;;;;;;;;;;;;;5014724;28;19924;-85
2022/07/04 01:21:38;;;;;;;;;;;;;;;;;;5019730;28;20329;-84
2022/07/04 01:24:04;;;;;;;;;;;;;;;;;;5017401;28;20198;-85
2022/07/04 01:26:30;;;;;;;;;;;;;;;;;;5018147;28;19920;-85
2022/07/04 01:28:55;;;;;;;;;;;;;;;;;;5016675;28;19924;-85
2022/07/04 01:31:20;;;;;;;;;;;;;;;;;;5018659;28;19913;-84
2022/07/04 01:33:45;;;;;;;;;;;;;;;;;;5015556;28;19952;-85
2022/07/04 01:36:10;;;;;;;;;;;;;;;;;;5013816;28;19914;-85
2022/07/04 01:38:36;;;;;;;;;;;;;;;;;;5017114;28;20356;-85
2022/07/04 01:41:01;;;;;;;;;;;;;;;;;;5014994;28;20023;-85
2022/07/04 01:43:26;;;;;;;;;;;;;;;;;;5015063;28;19914;-85
2022/07/04 01:45:51;;;;;;;;;;;;;;;;;;5015393;28;20443;-84
2022/07/04 01:48:16;;;;;;;;;;;;;;;;;;5017557;28;20016;-84
2022/07/04 01:50:41;;;;;;;;;;;;;;;;;;5017946;28;19935;-84
2022/07/04 01:53:07;;;;;;;;;;;;;;;;;;5015798;28;19993;-84
2022/07/04 01:55:32;;;;;;;;;;;;;;;;;;5016099;28;20010;-84
2022/07/04 01:57:57;;;;;;;;;;;;;;;;;;5012809;28;19929;-84
2022/07/04 02:03:07;;;;;;;;;;;;;;;;;;5012590;28;20059;-84
2022/07/04 02:05:33;;;;;;;;;;;;;;;;;;5013132;28;20606;-84
2022/07/04 02:07:58;;;;;;;;;;;;;;;;;;5015464;28;20254;-84
2022/07/04 02:10:23;;;;;;;;;;;;;;;;;;5010687;28;19924;-84
2022/07/04 02:13:04;;;;;;;;;;;;;;;;;;5017699;28;19921;-84
2022/07/04 02:15:29;;;;;;;;;;;;;;;;;;5013876;28;20502;-84
2022/07/04 02:17:54;;;;;;;;;;;;;;;;;;5015515;28;19975;-84
2022/07/04 02:20:20;;;;;;;;;;;;;;;;;;5018482;28;20395;-84
2022/07/04 02:22:45;;;;;;;;;;;;;;;;;;5010438;28;19914;-84
2022/07/04 02:25:11;;;;;;;;;;;;;;;;;;5013178;28;19925;-84
2022/07/04 02:27:36;;;;;;;;;;;;;;;;;;5018792;28;19972;-84
2022/07/04 02:30:02;;;;;;;;;;;;;;;;;;5014072;28;19962;-84
2022/07/04 02:32:27;;;;;;;;;;;;;;;;;;5010268;28;19959;-84
2022/07/04 02:34:52;;;;;;;;;;;;;;;;;;5015565;28;20433;-84
2022/07/04 02:37:17;;;;;;;;;;;;;;;;;;5015359;28;19917;-84
2022/07/04 02:39:43;;;;;;;;;;;;;;;;;;5017521;28;19917;-83
2022/07/04 02:42:08;;;;;;;;;;;;;;;;;;5022019;28;20754;-84
2022/07/04 02:44:33;;;;;;;;;;;;;;;;;;5013686;28;19925;-84
2022/07/04 02:46:58;;;;;;;;;;;;;;;;;;5014197;28;19921;-84
2022/07/04 02:49:23;;;;;;;;;;;;;;;;;;5014000;28;20011;-84
2022/07/04 02:51:48;;;;;;;;;;;;;;;;;;5018563;28;19921;-84
2022/07/04 02:54:14;;;;;;;;;;;;;;;;;;5014600;28;19936;-84
2022/07/04 02:56:39;;;;;;;;;;;;;;;;;;5014801;28;19940;-83
2022/07/04 02:59:04;;;;;;;;;;;;;;;;;;5013606;28;19913;-83
2022/07/04 03:01:29;;;;;;;;;;;;;;;;;;5010591;28;19923;-83
2022/07/04 03:03:54;;;;;;;;;;;;;;;;;;5012424;28;19920;-83
2022/07/04 03:06:19;;;;;;;;;;;;;;;;;;5014032;28;19955;-84
2022/07/04 03:08:45;;;;;;;;;;;;;;;;;;5015885;28;19914;-84
2022/07/04 03:11:10;;;;;;;;;;;;;;;;;;5013019;28;20199;-84
2022/07/04 03:13:35;;;;;;;;;;;;;;;;;;5015007;28;20265;-83
2022/07/04 03:16:00;;;;;;;;;;;;;;;;;;5015821;28;19928;-84
2022/07/04 03:18:25;;;;;;;;;;;;;;;;;;5018476;28;19917;-83
2022/07/04 03:20:50;;;;;;;;;;;;;;;;;;5012506;28;20364;-84
2022/07/04 03:23:16;;;;;;;;;;;;;;;;;;5013442;28;20171;-84
2022/07/04 03:25:41;;;;;;;;;;;;;;;;;;5014659;28;19945;-83
2022/07/04 03:28:06;;;;;;;;;;;;;;;;;;5020236;28;20320;-83
2022/07/04 03:30:31;;;;;;;;;;;;;;;;;;5016090;28;19921;-83
2022/07/04 03:32:56;;;;;;;;;;;;;;;;;;5018179;28;19917;-84
2022/07/04 03:35:22;;;;;;;;;;;;;;;;;;5021063;28;19949;-83
2022/07/04 03:37:47;;;;;;;;;;;;;;;;;;5014481;28;20014;-83
2022/07/04 03:40:12;;;;;;;;;;;;;;;;;;5014848;28;21307;-83
2022/07/04 03:42:37;;;;;;;;;;;;;;;;;;5013779;28;19920;-83
2022/07/04 03:45:02;;;;;;;;;;;;;;;;;;5014957;28;19932;-84
2022/07/04 03:47:27;;;;;;;;;;;;;;;;;;5015912;28;20427;-84
2022/07/04 03:49:53;;;;;;;;;;;;;;;;;;5018585;28;19917;-84
2022/07/04 03:52:18;;;;;;;;;;;;;;;;;;5017903;28;19917;-84
2022/07/04 03:54:43;;;;;;;;;;;;;;;;;;5017695;28;19948;-83
2022/07/04 03:57:08;;;;;;;;;;;;;;;;;;5017922;28;20674;-84
2022/07/04 03:59:33;;;;;;;;;;;;;;;;;;5020951;28;19913;-83
2022/07/04 04:01:59;;;;;;;;;;;;;;;;;;5019787;28;19914;-83
2022/07/04 04:07:07;;;;;;;;;;;;;;;;;;5021797;28;19920;-84
2022/07/04 04:09:33;;;;;;;;;;;;;;;;;;5018219;28;19921;-84
2022/07/04 04:11:58;;;;;;;;;;;;;;;;;;5017772;28;19939;-84
2022/07/04 04:14:24;;;;;;;;;;;;;;;;;;5019551;28;20371;-83
2022/07/04 04:16:49;;;;;;;;;;;;;;;;;;5019469;28;19917;-84
2022/07/04 04:19:14;;;;;;;;;;;;;;;;;;5012763;28;19913;-83
2022/07/04 04:21:40;;;;;;;;;;;;;;;;;;5015936;28;19914;-83
2022/07/04 04:24:05;;;;;;;;;;;;;;;;;;5012937;28;20398;-84
2022/07/04 04:26:30;;;;;;;;;;;;;;;;;;5015990;28;19922;-84
2022/07/04 04:28:55;;;;;;;;;;;;;;;;;;5015740;28;19913;-83
2022/07/04 04:31:20;;;;;;;;;;;;;;;;;;5013892;28;20307;-84
2022/07/04 04:33:45;;;;;;;;;;;;;;;;;;5016549;28;19913;-84
2022/07/04 04:36:11;;;;;;;;;;;;;;;;;;5015409;28;19947;-84
2022/07/04 04:38:36;;;;;;;;;;;;;;;;;;5019039;28;19914;-84
2022/07/04 04:41:01;;;;;;;;;;;;;;;;;;5019005;28;20261;-84
2022/07/04 04:43:26;;;;;;;;;;;;;;;;;;5017163;28;20014;-84
2022/07/04 04:45:55;;;;;;;;;;;;;;;;;;5016254;28;19927;-84
2022/07/04 04:48:20;;;;;;;;;;;;;;;;;;5020120;28;19920;-83
2022/07/04 04:50:45;;;;;;;;;;;;;;;;;;5017308;28;19921;-84
2022/07/04 04:53:11;;;;;;;;;;;;;;;;;;5016212;28;20020;-83
2022/07/04 04:55:36;;;;;;;;;;;;;;;;;;5017118;28;19920;-84
2022/07/04 04:58:01;;;;;;;;;;;;;;;;;;5015973;28;19909;-84
2022/07/04 05:00:26;;;;;;;;;;;;;;;;;;5014470;28;20293;-84
2022/07/04 05:02:51;;;;;;;;;;;;;;;;;;5013868;28;19963;-84
2022/07/04 05:05:17;;;;;;;;;;;;;;;;;;5012869;28;19919;-84
2022/07/04 05:07:42;;;;;;;;;;;;;;;;;;5017151;28;20405;-84
2022/07/04 05:10:07;;;;;;;;;;;;;;;;;;5013832;28;19921;-84
2022/07/04 05:12:32;;;;;;;;;;;;;;;;;;5012105;28;19929;-84
2022/07/04 05:14:57;;;;;;;;;;;;;;;;;;5008579;28;20819;-84
2022/07/04 05:17:23;;;;;;;;;;;;;;;;;;5011158;28;21102;-84
2022/07/04 05:19:48;;;;;;;;;;;;;;;;;;5012207;28;19917;-84
2022/07/04 05:22:14;;;;;;;;;;;;;;;;;;5010242;28;19924;-83
2022/07/04 05:24:40;;;;;;;;;;;;;;;;;;5011514;28;19921;-84
2022/07/04 05:27:05;;;;;;;;;;;;;;;;;;5014126;28;19921;-84
2022/07/04 05:29:30;;;;;;;;;;;;;;;;;;5017345;28;19975;-85
2022/07/04 05:31:55;;;;;;;;;;;;;;;;;;5009296;28;19913;-85
2022/07/04 05:34:20;;;;;;;;;;;;;;;;;;5009454;28;20130;-85
2022/07/04 05:36:46;;;;;;;;;;;;;;;;;;5011010;28;19952;-85
2022/07/04 05:39:11;;;;;;;;;;;;;;;;;;5013419;28;19914;-85
2022/07/04 05:41:36;;;;;;;;;;;;;;;;;;5010802;28;19948;-85
2022/07/04 05:44:01;;;;;;;;;;;;;;;;;;5012875;28;20402;-84
2022/07/04 05:46:27;;;;;;;;;;;;;;;;;;5012543;28;19928;-84
2022/07/04 05:48:52;;;;;;;;;;;;;;;;;;5036269;28;19987;-84
2022/07/04 05:51:17;;;;;;;;;;;;;;;;;;5016419;28;20288;-85
2022/07/04 05:53:42;;;;;;;;;;;;;;;;;;5012112;28;19918;-84
2022/07/04 05:56:07;;;;;;;;;;;;;;;;;;5011065;28;19913;-84
2022/07/04 05:58:33;;;;;;;;;;;;;;;;;;5015590;28;19932;-84
2022/07/04 06:00:58;;;;;;;;;;;;;;;;;;5014655;28;19917;-84
2022/07/04 06:03:23;;;;;;;;;;;;;;;;;;5008728;28;19983;-84
2022/07/04 06:05:49;;;;;;;;;;;;;;;;;;5011923;28;19954;-84
2022/07/04 06:08:14;;;;;;;;;;;;;;;;;;5012264;28;19960;-84
2022/07/04 06:10:39;;;;;;;;;;;;;;;;;;5015047;28;19940;-84
2022/07/04 06:13:05;;;;;;;;;;;;;;;;;;5014143;28;19960;-85
2022/07/04 06:15:30;;;;;;;;;;;;;;;;;;5019399;28;19917;-85
2022/07/04 06:17:55;;;;;;;;;;;;;;;;;;5018039;28;19913;-85
2022/07/04 06:20:21;;;;;;;;;;;;;;;;;;5015527;28;20368;-85
2022/07/04 06:22:46;;;;;;;;;;;;;;;;;;5018567;28;20300;-85
2022/07/04 06:25:11;;;;;;;;;;;;;;;;;;5016098;28;19936;-85
2022/07/04 06:27:36;;;;;;;;;;;;;;;;;;5020882;28;19918;-85
2022/07/04 06:30:01;;;;;;;;;;;;;;;;;;5015207;28;19964;-85
2022/07/04 06:32:27;;;;;;;;;;;;;;;;;;5014053;28;19917;-85
2022/07/04 06:37:46;;;;;;;;;;;;;;;;;;4999640;28;19914;-85
2022/07/04 06:40:11;;;;;;;;;;;;;;;;;;5016638;28;19960;-85
2022/07/04 06:42:37;;;;;;;;;;;;;;;;;;5018575;28;19937;-85
2022/07/04 06:45:02;;;;;;;;;;;;;;;;;;5020923;28;19932;-85
2022/07/04 06:47:27;;;;;;;;;;;;;;;;;;5015552;28;20331;-85
2022/07/04 06:49:52;;;;;;;;;;;;;;;;;;5014445;28;19917;-84
2022/07/04 06:52:17;;;;;;;;;;;;;;;;;;5016131;28;19923;-84
2022/07/04 06:54:42;;;;;;;;;;;;;;;;;;5010947;28;19917;-84
2022/07/04 06:57:08;;;;;;;;;;;;;;;;;;5017616;28;19918;-84
2022/07/04 06:59:33;;;;;;;;;;;;;;;;;;5021984;28;20089;-84
2022/07/04 07:01:58;;;;;;;;;;;;;;;;;;5019416;28;20000;-84
2022/07/04 07:04:23;;;;;;;;;;;;;;;;;;5021869;28;20072;-84
2022/07/04 07:06:48;;;;;;;;;;;;;;;;;;5018521;28;19953;-85
2022/07/04 07:09:13;;;;;;;;;;;;;;;;;;5024625;28;20285;-83
2022/07/04 07:11:39;;;;;;;;;;;;;;;;;;5019545;28;19913;-84
2022/07/04 07:14:04;;;;;;;;;;;;;;;;;;5020332;28;19917;-84
2022/07/04 07:16:29;;;;;;;;;;;;;;;;;;5022223;28;19913;-84
2022/07/04 07:18:54;;;;;;;;;;;;;;;;;;5019519;28;19914;-84
2022/07/04 07:21:19;;;;;;;;;;;;;;;;;;5015934;28;20007;-84
2022/07/04 07:23:44;;;;;;;;;;;;;;;;;;5018844;28;19922;-83
2022/07/04 07:26:10;;;;;;;;;;;;;;;;;;5027151;28;19920;-84
2022/07/04 07:28:35;;;;;;;;;;;;;;;;;;5021665;28;20412;-83
2022/07/04 07:31:00;;;;;;;;;;;;;;;;;;5021449;28;20304;-85
2022/07/04 07:33:25;;;;;;;;;;;;;;;;;;5016249;28;19913;-84
2022/07/04 07:35:50;;;;;;;;;;;;;;;;;;5022268;28;19927;-84
2022/07/04 07:38:15;;;;;;;;;;;;;;;;;;5011157;28;19925;-84
2022/07/04 07:40:41;;;;;;;;;;;;;;;;;;5018736;28;19917;-84
2022/07/04 07:43:06;;;;;;;;;;;;;;;;;;5016648;28;20377;-84
2022/07/04 07:45:31;;;;;;;;;;;;;;;;;;5016964;28;20275;-84
2022/07/04 07:47:56;;;;;;;;;;;;;;;;;;5018914;28;19960;-85
2022/07/04 07:50:21;;;;;;;;;;;;;;;;;;5015014;28;19921;-85
2022/07/04 07:52:47;;;;;;;;;;;;;;;;;;5016247;28;19918;-85
2022/07/04 07:55:12;;;;;;;;;;;;;;;;;;5015053;28;19913;-84
2022/07/04 07:57:37;;;;;;;;;;;;;;;;;;5018190;28;19971;-84
2022/07/04 08:00:02;;;;;;;;;;;;;;;;;;5015193;28;20383;-85
2022/07/04 08:05:11;;;;;;;;;;;;;;;;;;5018336;28;19925;-84
2022/07/04 08:07:36;;;;;;;;;;;;;;;;;;5013323;28;19917;-83
2022/07/04 08:10:01;;;;;;;;;;;;;;;;;;5015785;28;19917;-84
2022/07/04 08:12:27;;;;;;;;;;;;;;;;;;5016178;28;19918;-83
2022/07/04 08:14:52;;;;;;;;;;;;;;;;;;5015066;28;20128;-84
2022/07/04 08:17:17;;;;;;;;;;;;;;;;;;5019092;28;20289;-84
2022/07/04 08:19:42;;;;;;;;;;;;;;;;;;5013538;28;19963;-84
2022/07/04 08:22:08;;;;;;;;;;;;;;;;;;5014971;28;19920;-84
2022/07/04 08:24:33;;;;;;;;;;;;;;;;;;5015378;28;20369;-84
2022/07/04 08:26:58;;;;;;;;;;;;;;;;;;5013684;28;19933;-85
2022/07/04 08:29:24;;;;;;;;;;;;;;;;;;5015048;28;19979;-84
2022/07/04 08:31:49;;;;;;;;;;;;;;;;;;5012033;28;20373;-84
2022/07/04 08:34:14;;;;;;;;;;;;;;;;;;5015019;28;19924;-84
2022/07/04 08:36:39;;;;;;;;;;;;;;;;;;5016604;28;19948;-84
2022/07/04 08:39:04;;;;;;;;;;;;;;;;;;5014333;28;19923;-83
2022/07/04 08:41:30;;;;;;;;;;;;;;;;;;5012130;28;19914;-84
2022/07/04 08:43:55;;;;;;;;;;;;;;;;;;5034238;23;20616;-85
2022/07/04 08:46:20;;;;;;;;;;;;;;;;;;5026611;28;19924;-89
2022/07/04 08:48:45;;;;;;;;;;;;;;;;;;5023102;28;19925;-86
2022/07/04 08:51:10;;;;;;;;;;;;;;;;;;5032228;28;19940;-87
2022/07/04 08:53:36;;;;;;;;;;;;;;;;;;5024930;28;19921;-86
2022/07/04 08:58:45;;;;;;;;;;;;;;;;;;5022083;28;19939;-86
2022/07/04 09:01:16;;;;;;;;;;;;;;;;;;5023389;28;19921;-87
2022/07/04 09:03:41;;;;;;;;;;;;;;;;;;5023673;28;20513;-87
2022/07/04 09:06:06;;;;;;;;;;;;;;;;;;5022804;28;19921;-85
2022/07/04 09:08:31;;;;;;;;;;;;;;;;;;5018735;28;19944;-88
2022/07/04 09:10:57;;;;;;;;;;;;;;;;;;5027117;28;19951;-89
2022/07/04 09:13:22;;;;;;;;;;;;;;;;;;5030110;28;19978;-86
2022/07/04 09:15:47;;;;;;;;;;;;;;;;;;5024312;28;19928;-87
2022/07/04 09:18:12;;;;;;;;;;;;;;;;;;5018275;28;19928;-87
2022/07/04 09:20:37;;;;;;;;;;;;;;;;;;5022834;28;20162;-86
2022/07/04 09:23:02;;;;;;;;;;;;;;;;;;5020985;28;19979;-88
2022/07/04 09:25:28;;;;;;;;;;;;;;;;;;5022827;28;19947;-87
2022/07/04 09:27:53;;;;;;;;;;;;;;;;;;5022245;28;19965;-86
2022/07/04 09:30:18;;;;;;;;;;;;;;;;;;5019601;28;19921;-85
2022/07/04 09:32:43;;;;;;;;;;;;;;;;;;5021550;28;20474;-86
2022/07/04 09:35:09;;;;;;;;;;;;;;;;;;5022413;28;19921;-88
2022/07/04 09:37:34;;;;;;;;;;;;;;;;;;5024813;28;20438;-86
2022/07/04 09:40:00;;;;;;;;;;;;;;;;;;5025070;28;19917;-85
2022/07/04 09:42:25;;;;;;;;;;;;;;;;;;5023412;28;19917;-88
2022/07/04 09:44:50;;;;;;;;;;;;;;;;;;5027998;28;19924;-86
2022/07/04 09:47:15;;;;;;;;;;;;;;;;;;5029706;28;19921;-85
2022/07/04 09:49:40;;;;;;;;;;;;;;;;;;5025514;28;20542;-88
2022/07/04 09:52:05;;;;;;;;;;;;;;;;;;5028640;28;19921;-86
2022/07/04 09:54:34;;;;;;;;;;;;;;;;;;5029967;28;19940;-87
2022/07/04 09:56:59;;;;;;;;;;;;;;;;;;5027063;28;20011;-87
2022/07/04 09:59:24;;;;;;;;;;;;;;;;;;5025450;28;20002;-87
2022/07/04 10:01:49;;;;;;;;;;;;;;;;;;5027390;28;20017;-85
2022/07/04 10:04:15;;;;;;;;;;;;;;;;;;5024461;28;20246;-86
2022/07/04 10:06:40;;;;;;;;;;;;;;;;;;5024642;28;20380;-88
2022/07/04 10:09:05;;;;;;;;;;;;;;;;;;5024008;28;19999;-87
2022/07/04 10:11:30;;;;;;;;;;;;;;;;;;5018759;28;20431;-86
2022/07/04 10:13:55;;;;;;;;;;;;;;;;;;5026850;28;19956;-85
2022/07/04 10:16:20;;;;;;;;;;;;;;;;;;5026217;28;19921;-86
2022/07/04 10:18:46;;;;;;;;;;;;;;;;;;5027851;28;19924;-87
2022/07/04 10:21:11;;;;;;;;;;;;;;;;;;5027498;28;19912;-86
2022/07/04 10:23:36;;;;;;;;;;;;;;;;;;5022550;28;19921;-87
2022/07/04 10:26:02;;;;;;;;;;;;;;;;;;5021404;28;20220;-87
2022/07/04 10:28:27;;;;;;;;;;;;;;;;;;5025786;28;19970;-88
2022/07/04 10:30:52;;;;;;;;;;;;;;;;;;5026538;28;19952;-88
2022/07/04 10:33:18;;;;;;;;;;;;;;;;;;5021557;28;19964;-87
2022/07/04 10:35:43;;;;;;;;;;;;;;;;;;5022008;28;20621;-86
2022/07/04 10:38:08;;;;;;;;;;;;;;;;;;5030138;28;19917;-84
2022/07/04 10:40:33;;;;;;;;;;;;;;;;;;5028799;28;20307;-87
2022/07/04 10:42:58;;;;;;;;;;;;;;;;;;5019957;28;20299;-87
2022/07/04 10:45:28;;;;;;;;;;;;;;;;;;5017032;28;19917;-85
2022/07/04 10:47:53;;;;;;;;;;;;;;;;;;5025218;28;19913;-87
2022/07/04 10:50:18;;;;;;;;;;;;;;;;;;5016998;28;19917;-86
2022/07/04 10:52:43;;;;;;;;;;;;;;;;;;5022259;28;20643;-86
2022/07/04 10:55:08;;;;;;;;;;;;;;;;;;5014690;28;19920;-86
2022/07/04 10:57:33;;;;;;;;;;;;;;;;;;5021759;28;20487;-86
2022/07/04 11:00:00;;;;;;;;;;;;;;;;;;5024849;28;19959;-87
2022/07/04 11:02:25;;;;;;;;;;;;;;;;;;5018765;28;19917;-87
2022/07/04 11:04:50;;;;;;;;;;;;;;;;;;5021408;28;19917;-85
2022/07/04 11:07:15;;;;;;;;;;;;;;;;;;5017092;28;19916;-87
2022/07/04 11:09:42;;;;;;;;;;;;;;;;;;5023208;28;19925;-86
2022/07/04 11:12:07;;;;;;;;;;;;;;;;;;5020137;28;19951;-87
2022/07/04 11:14:33;;;;;;;;;;;;;;;;;;5020110;28;19967;-85
2022/07/04 11:16:58;;;;;;;;;;;;;;;;;;5017636;28;20415;-88
2022/07/04 11:19:23;;;;;;;;;;;;;;;;;;5018434;28;19945;-85
2022/07/04 11:21:48;;;;;;;;;;;;;;;;;;5016864;28;20300;-86
2022/07/04 11:24:13;;;;;;;;;;;;;;;;;;5020405;28;19924;-86
2022/07/04 11:26:39;;;;;;;;;;;;;;;;;;5019697;28;19991;-85
2022/07/04 11:29:04;;;;;;;;;;;;;;;;;;5023202;28;19913;-84
2022/07/04 11:31:29;;;;;;;;;;;;;;;;;;5019281;28;19922;-86
2022/07/04 11:33:54;;;;;;;;;;;;;;;;;;5021034;28;19922;-86
2022/07/04 11:36:20;;;;;;;;;;;;;;;;;;5019696;28;19917;-85
2022/07/04 11:38:45;;;;;;;;;;;;;;;;;;5019766;28;19978;-85
2022/07/04 11:46:38;;;;;;;;;;;;;;;;;;5021284;28;19967;-85
2022/07/04 11:49:04;;;;;;;;;;;;;;;;;;5015416;28;19953;-86
2022/07/04 11:51:29;;;;;;;;;;;;;;;;;;5022048;28;20190;-85
2022/07/04 11:53:54;;;;;;;;;;;;;;;;;;5024981;28;20414;-86
2022/07/04 11:56:19;;;;;;;;;;;;;;;;;;5024904;28;19953;-87
2022/07/04 11:58:44;;;;;;;;;;;;;;;;;;5017563;28;20307;-86
2022/07/04 12:01:12;;;;;;;;;;;;;;;;;;5023084;28;19936;-87
2022/07/04 12:03:38;;;;;;;;;;;;;;;;;;5021104;28;19929;-87
2022/07/04 12:06:03;;;;;;;;;;;;;;;;;;5028084;28;19924;-86
2022/07/04 12:08:28;;;;;;;;;;;;;;;;;;5022157;28;20479;-86
2022/07/04 12:10:53;;;;;;;;;;;;;;;;;;5025510;28;20019;-87
2022/07/04 12:13:19;;;;;;;;;;;;;;;;;;5019489;28;20106;-86
2022/07/04 12:15:44;;;;;;;;;;;;;;;;;;5021418;28;19946;-87
2022/07/04 12:18:09;;;;;;;;;;;;;;;;;;5024017;28;19963;-85
2022/07/04 12:20:35;;;;;;;;;;;;;;;;;;5021836;28;20396;-85
2022/07/04 12:23:00;;;;;;;;;;;;;;;;;;5025228;28;19917;-85
2022/07/04 12:25:25;;;;;;;;;;;;;;;;;;5021376;28;20684;-85
2022/07/04 12:27:50;;;;;;;;;;;;;;;;;;5021132;28;19968;-87
2022/07/04 12:30:15;;;;;;;;;;;;;;;;;;5020841;28;20031;-87
2022/07/04 12:32:40;;;;;;;;;;;;;;;;;;5026898;28;19913;-88
2022/07/04 12:35:06;;;;;;;;;;;;;;;;;;5021325;28;19927;-87
2022/07/04 12:37:31;;;;;;;;;;;;;;;;;;5019696;28;20385;-87
2022/07/04 12:39:56;;;;;;;;;;;;;;;;;;5017204;28;19921;-87
2022/07/04 12:42:21;;;;;;;;;;;;;;;;;;5020560;28;20347;-87
2022/07/04 12:44:49;;;;;;;;;;;;;;;;;;5022218;28;20008;-87
2022/07/04 12:47:14;;;;;;;;;;;;;;;;;;5021859;28;19928;-86
2022/07/04 12:49:39;;;;;;;;;;;;;;;;;;5022509;28;20320;-87
2022/07/04 12:52:04;;;;;;;;;;;;;;;;;;5024876;28;20461;-86
2022/07/04 12:54:29;;;;;;;;;;;;;;;;;;5021730;28;19920;-86
2022/07/04 12:56:55;;;;;;;;;;;;;;;;;;5026184;28;20454;-86
2022/07/04 12:59:20;;;;;;;;;;;;;;;;;;5026731;28;19928;-86
2022/07/04 13:01:45;;;;;;;;;;;;;;;;;;5020222;28;20130;-86
2022/07/04 13:04:10;;;;;;;;;;;;;;;;;;5019044;28;19921;-87
2022/07/04 13:06:36;;;;;;;;;;;;;;;;;;5022055;28;20361;-87
2022/07/04 13:09:01;;;;;;;;;;;;;;;;;;5021345;28;19928;-86
2022/07/04 13:14:10;;;;;;;;;;;;;;;;;;5019559;28;20375;-85
2022/07/04 13:16:35;;;;;;;;;;;;;;;;;;5017612;28;19996;-88
2022/07/04 13:19:00;;;;;;;;;;;;;;;;;;5022661;28;19917;-86
2022/07/04 13:21:26;;;;;;;;;;;;;;;;;;5022245;28;20012;-87
2022/07/04 13:23:51;;;;;;;;;;;;;;;;;;5025799;28;19980;-86
2022/07/04 13:26:16;;;;;;;;;;;;;;;;;;5018456;28;20438;-86
2022/07/04 13:28:41;;;;;;;;;;;;;;;;;;5021376;28;19925;-88
2022/07/04 13:31:06;;;;;;;;;;;;;;;;;;5022874;28;19921;-86
2022/07/04 13:33:31;;;;;;;;;;;;;;;;;;5021513;28;19917;-86
2022/07/04 13:35:57;;;;;;;;;;;;;;;;;;5022488;28;19955;-86
2022/07/04 13:38:22;;;;;;;;;;;;;;;;;;5018188;28;19920;-85
2022/07/04 13:40:47;;;;;;;;;;;;;;;;;;5023362;28;19917;-88
2022/07/04 13:43:12;;;;;;;;;;;;;;;;;;5022686;28;20003;-87
2022/07/04 13:45:39;;;;;;;;;;;;;;;;;;5020231;28;19921;-87
2022/07/04 13:48:04;;;;;;;;;;;;;;;;;;5015654;28;20231;-85
2022/07/04 13:50:29;;;;;;;;;;;;;;;;;;5021676;28;19920;-87
2022/07/04 13:52:54;;;;;;;;;;;;;;;;;;5020167;28;20415;-87
2022/07/04 13:55:19;;;;;;;;;;;;;;;;;;5017609;28;20091;-88
2022/07/04 13:57:45;;;;;;;;;;;;;;;;;;5016651;28;19921;-85
2022/07/04 14:00:10;;;;;;;;;;;;;;;;;;5019585;28;19917;-87
2022/07/04 14:02:35;;;;;;;;;;;;;;;;;;5017705;28;19917;-86
2022/07/04 14:05:00;;;;;;;;;;;;;;;;;;5019133;28;19921;-86
2022/07/04 14:07:25;;;;;;;;;;;;;;;;;;5020657;28;20190;-87
2022/07/04 14:09:51;;;;;;;;;;;;;;;;;;5023745;28;19921;-87
2022/07/04 14:12:16;;;;;;;;;;;;;;;;;;5021458;28;20446;-87
2022/07/04 14:14:41;;;;;;;;;;;;;;;;;;5015867;28;19917;-88
2022/07/04 14:17:06;;;;;;;;;;;;;;;;;;5017925;28;19932;-87
2022/07/04 14:19:31;;;;;;;;;;;;;;;;;;5019012;28;19967;-86
2022/07/04 14:21:57;;;;;;;;;;;;;;;;;;5018839;28;20307;-86
2022/07/04 14:24:24;;;;;;;;;;;;;;;;;;5019480;28;19917;-86
2022/07/04 14:26:50;;;;;;;;;;;;;;;;;;5017004;28;20439;-86
2022/07/04 14:29:15;;;;;;;;;;;;;;;;;;5020348;28;20023;-88
2022/07/04 14:31:40;;;;;;;;;;;;;;;;;;5018070;28;19928;-88
2022/07/04 14:34:07;;;;;;;;;;;;;;;;;;5019629;28;19917;-88
2022/07/04 14:36:32;;;;;;;;;;;;;;;;;;5015276;28;19921;-87
2022/07/04 14:38:57;;;;;;;;;;;;;;;;;;5015713;28;20453;-88
2022/07/04 14:41:38;;;;;;;;;;;;;;;;;;5041584;28;20021;-86
2022/07/04 14:44:03;;;;;;;;;;;;;;;;;;5034798;28;19916;-86
2022/07/04 14:46:28;;;;;;;;;;;;;;;;;;5033427;28;19971;-86
2022/07/04 14:48:53;;;;;;;;;;;;;;;;;;5037099;28;19924;-87
2022/07/04 14:51:18;;;;;;;;;;;;;;;;;;5035456;28;20031;-87
2022/07/04 14:53:44;;;;;;;;;;;;;;;;;;5035429;28;19983;-85
2022/07/04 14:56:09;;;;;;;;;;;;;;;;;;5039776;28;19924;-84
2022/07/04 14:58:39;;;;;;;;;;;;;;;;;;5031085;28;19983;-85
2022/07/04 15:01:07;;;;;;;;;;;;;;;;;;5041174;28;19964;-85
2022/07/04 15:03:33;;;;;;;;;;;;;;;;;;5068484;28;19914;-87
2022/07/04 15:06:00;;;;;;;;;;;;;;;;;;5038191;28;20401;-86
2022/07/04 15:08:26;;;;;;;;;;;;;;;;;;5036154;28;20319;-86
2022/07/04 15:10:51;;;;;;;;;;;;;;;;;;5034282;28;19923;-86
2022/07/04 15:13:16;;;;;;;;;;;;;;;;;;5039224;28;20535;-85
2022/07/04 15:15:44;;;;;;;;;;;;;;;;;;5040274;28;19920;-85
2022/07/04 15:18:09;;;;;;;;;;;;;;;;;;5036678;28;19971;-85
2022/07/04 15:26:08;;;;;;;;;;;;;;;;;;5035182;28;19982;-86
2022/07/04 15:28:33;;;;;;;;;;;;;;;;;;5037329;28;20384;-86
2022/07/04 15:31:00;;;;;;;;;;;;;;;;;;5038875;28;20337;-85
2022/07/04 15:33:30;;;;;;;;;;;;;;;;;;5038929;28;19917;-86
2022/07/04 15:35:56;;;;;;;;;;;;;;;;;;5041529;28;20000;-84
2022/07/04 15:38:21;;;;;;;;;;;;;;;;;;5037508;28;20027;-87
2022/07/04 15:40:47;;;;;;;;;;;;;;;;;;5056163;28;19921;-86
2022/07/04 15:43:15;;;;;;;;;;;;;;;;;;5046536;28;20353;-86
2022/07/04 15:45:45;;;;;;;;;;;;;;;;;;5061343;28;19921;-86
2022/07/04 15:51:24;;;;;;;;;;;;;;;;;;;;;
2022/07/04 15:54:02;;;;;;;;;;;;;;;;;;4898012;28;19925;-86
2022/07/04 16:01:55;;;;;;;;;;;;;;;;;;5047379;28;19920;-84
2022/07/04 16:04:26;;;;;;;;;;;;;;;;;;5045361;28;19916;-87
2022/07/04 16:07:05;;;;;;;;;;;;;;;;;;5040420;28;19970;-86
2022/07/04 16:12:28;;;;;;;;;;;;;;;;;;4997035;28;19920;-84
2022/07/04 16:14:58;;;;;;;;;;;;;;;;;;5043064;28;19913;-86
2022/07/04 16:17:24;;;;;;;;;;;;;;;;;;5048956;28;19913;-84
2022/07/04 16:19:49;;;;;;;;;;;;;;;;;;5048278;28;19928;-83
2022/07/04 16:22:14;;;;;;;;;;;;;;;;;;5043811;28;20004;-83
2022/07/04 16:24:42;;;;;;;;;;;;;;;;;;5050519;28;19913;-83
2022/07/04 16:27:07;;;;;;;;;;;;;;;;;;5049970;28;19916;-83
2022/07/04 16:29:45;;;;;;;;;;;;;;;;;;;;;
2022/07/04 16:32:13;;;;;;;;;;;;;;;;;;5048505;28;19919;-84
2022/07/04 16:34:38;;;;;;;;;;;;;;;;;;5044610;28;19913;-83
2022/07/04 16:37:03;;;;;;;;;;;;;;;;;;5046916;28;19935;-82
2022/07/04 16:39:29;;;;;;;;;;;;;;;;;;5049975;28;19982;-83
2022/07/04 16:41:54;;;;;;;;;;;;;;;;;;5048573;28;19923;-82
2022/07/04 16:44:19;;;;;;;;;;;;;;;;;;5046777;28;19932;-82
2022/07/04 16:46:44;;;;;;;;;;;;;;;;;;5049105;28;19948;-83
2022/07/04 16:49:12;;;;;;;;;;;;;;;;;;5044324;28;19916;-84
2022/07/04 16:51:37;;;;;;;;;;;;;;;;;;5030843;28;19990;-84
2022/07/04 16:54:02;;;;;;;;;;;;;;;;;;5047715;28;20314;-83
2022/07/04 16:56:27;;;;;;;;;;;;;;;;;;5050350;28;19917;-84
2022/07/04 16:58:53;;;;;;;;;;;;;;;;;;5047129;28;20333;-84
2022/07/04 17:01:18;;;;;;;;;;;;;;;;;;5044224;28;19931;-84
2022/07/04 17:03:46;;;;;;;;;;;;;;;;;;5045019;28;20337;-84
2022/07/04 17:06:11;;;;;;;;;;;;;;;;;;5045668;28;19917;-84
2022/07/04 17:08:38;;;;;;;;;;;;;;;;;;5042393;28;19979;-84
2022/07/04 17:11:03;;;;;;;;;;;;;;;;;;5041838;28;19913;-84
2022/07/04 17:13:34;;;;;;;;;;;;;;;;;;5046026;28;20429;-84